Terminal Aerodrome Forecast
Issued by NWS Rapid City, SD

Home | Current Version | Previous Version | Graphics & Text | Print | Product List | Glossary On
Versions: 1 2 3 4 5 6 7 8 9 10 11 12 13 14 15 16 17 18
000
FTUS43 KUNR 132300
TAFRAP
TAF
KRAP 132320Z 1400/1424 35018G28KT P6SM SCT050 OVC100
     FM140300 33015KT P6SM OVC100
     FM141400 32020G30KT P6SM SKC=

USA.gov is the U.S. government's official web portal to all federal, state and local government web resources and services.